createdAt,value
2024-03-02T00:00:45.566Z,50.98
2024-03-02T00:01:45.492Z,50.95
2024-03-02T00:02:45.539Z,50.95
2024-03-02T00:03:45.583Z,50.90
2024-03-02T00:04:45.533Z,50.92
2024-03-02T00:05:45.566Z,50.95
2024-03-02T00:06:45.650Z,50.95
2024-03-02T00:07:46.596Z,50.95
2024-03-02T00:08:45.768Z,50.93
2024-03-02T00:09:45.803Z,50.86
2024-03-02T00:10:45.888Z,50.92
2024-03-02T00:11:45.890Z,50.93
2024-03-02T00:12:45.976Z,50.91
2024-03-02T00:13:46.027Z,50.90
2024-03-02T00:14:46.096Z,50.93
2024-03-02T00:15:46.183Z,50.92
2024-03-02T00:16:46.211Z,50.91
2024-03-02T00:17:46.319Z,50.92
2024-03-02T00:18:46.349Z,50.91
2024-03-02T00:19:46.367Z,50.90
2024-03-02T00:20:46.424Z,50.89
2024-03-02T00:21:46.539Z,50.90
2024-03-02T00:22:48.662Z,50.88
2024-03-02T00:23:46.635Z,50.91
2024-03-02T00:24:46.601Z,50.89
2024-03-02T00:25:46.598Z,50.89
2024-03-02T00:26:46.615Z,50.91
2024-03-02T00:27:46.660Z,50.90
2024-03-02T00:28:46.700Z,50.88
2024-03-02T00:29:46.671Z,50.88
2024-03-02T00:30:46.729Z,50.89
2024-03-02T00:31:46.694Z,50.87
2024-03-02T00:32:46.845Z,50.86
2024-03-02T00:33:46.804Z,50.87
2024-03-02T00:34:46.802Z,50.84
2024-03-02T00:35:46.768Z,50.85
2024-03-02T00:36:46.916Z,50.85
2024-03-02T00:37:46.786Z,50.85
2024-03-02T00:38:46.794Z,50.84
2024-03-02T00:39:46.868Z,50.85
2024-03-02T00:40:46.837Z,50.84
2024-03-02T00:41:46.842Z,50.83
2024-03-02T00:42:47.639Z,50.84
2024-03-02T00:43:47.933Z,50.84
2024-03-02T00:44:46.900Z,50.85
2024-03-02T00:45:46.956Z,50.83
2024-03-02T00:46:46.928Z,50.85
2024-03-02T00:47:47.041Z,50.82
2024-03-02T00:48:47.000Z,50.83
2024-03-02T00:49:46.967Z,50.81
2024-03-02T00:50:46.970Z,50.84
2024-03-02T00:51:47.017Z,50.83
2024-03-02T00:52:47.061Z,50.81
2024-03-02T00:53:47.067Z,50.80
2024-03-02T00:54:47.077Z,50.78
2024-03-02T00:55:47.034Z,50.80
2024-03-02T00:56:47.051Z,50.76
2024-03-02T00:57:47.070Z,50.76
2024-03-02T00:58:47.096Z,50.78
2024-03-02T00:59:47.089Z,50.78
2024-03-02T01:00:47.184Z,50.76
2024-03-02T01:01:47.176Z,50.76
2024-03-02T01:02:47.133Z,50.75
2024-03-02T01:03:47.189Z,50.77
2024-03-02T01:04:47.157Z,50.76
2024-03-02T01:05:47.279Z,50.76
2024-03-02T01:06:47.416Z,50.74
2024-03-02T01:07:47.176Z,50.72
2024-03-02T01:08:47.191Z,50.75
2024-03-02T01:09:47.240Z,50.73
2024-03-02T01:10:47.242Z,50.76
2024-03-02T01:11:47.236Z,50.71
2024-03-02T01:12:47.297Z,50.74
2024-03-02T01:13:47.270Z,50.72
2024-03-02T01:14:47.282Z,50.72
2024-03-02T01:15:47.315Z,50.71
2024-03-02T01:16:47.316Z,50.73
2024-03-02T01:17:47.337Z,50.70
2024-03-02T01:18:47.640Z,50.72
2024-03-02T01:19:47.404Z,50.72
2024-03-02T01:20:47.387Z,50.70
2024-03-02T01:21:47.434Z,50.70
2024-03-02T01:22:47.441Z,50.71
2024-03-02T01:23:47.457Z,50.72
2024-03-02T01:24:47.512Z,50.73
2024-03-02T01:25:47.499Z,50.71
2024-03-02T01:26:47.520Z,50.69
2024-03-02T01:27:50.224Z,50.69
2024-03-02T01:28:47.550Z,50.68
2024-03-02T01:29:47.577Z,50.66
2024-03-02T01:30:47.671Z,50.68
2024-03-02T01:31:47.603Z,50.67
2024-03-02T01:32:47.633Z,50.64
2024-03-02T01:33:48.606Z,50.67
2024-03-02T01:34:47.665Z,50.65
2024-03-02T01:35:48.063Z,50.64
2024-03-02T01:36:47.752Z,50.63
2024-03-02T01:37:47.667Z,50.64
2024-03-02T01:38:47.682Z,50.64
2024-03-02T01:39:47.768Z,50.63
2024-03-02T01:40:47.721Z,50.65
2024-03-02T01:41:47.730Z,50.65
2024-03-02T01:42:47.815Z,50.63
2024-03-02T01:43:47.825Z,50.63
2024-03-02T01:44:47.800Z,50.62
2024-03-02T01:45:47.818Z,50.62
2024-03-02T01:46:47.815Z,50.61
2024-03-02T01:47:47.826Z,50.62
2024-03-02T01:48:48.598Z,50.60
2024-03-02T01:49:47.918Z,50.61
2024-03-02T01:50:47.856Z,50.59
2024-03-02T01:51:47.953Z,50.58
2024-03-02T01:52:47.884Z,50.61
2024-03-02T01:53:48.004Z,50.60
2024-03-02T01:54:48.044Z,50.62
2024-03-02T01:55:47.942Z,50.60
2024-03-02T01:56:47.946Z,50.59
2024-03-02T01:57:47.999Z,50.61
2024-03-02T01:58:47.990Z,50.57
2024-03-02T01:59:47.990Z,50.59
2024-03-02T02:00:48.077Z,50.58
2024-03-02T02:01:48.581Z,50.60
2024-03-02T02:02:48.042Z,50.58
2024-03-02T02:03:48.079Z,50.58
2024-03-02T02:04:48.083Z,50.58
2024-03-02T02:05:48.164Z,50.56
2024-03-02T02:06:48.159Z,50.56
2024-03-02T02:07:48.246Z,50.55
2024-03-02T02:08:48.142Z,50.56
2024-03-02T02:09:48.187Z,50.54
2024-03-02T02:10:48.221Z,50.54
2024-03-02T02:11:48.229Z,50.54
2024-03-02T02:12:48.253Z,50.53
2024-03-02T02:13:48.244Z,50.53
2024-03-02T02:14:48.245Z,50.52
2024-03-02T02:15:48.289Z,50.55
2024-03-02T02:16:48.274Z,50.50
2024-03-02T02:17:48.384Z,50.49
2024-03-02T02:18:48.340Z,50.50
2024-03-02T02:19:48.341Z,50.49
2024-03-02T02:20:48.396Z,50.54
2024-03-02T02:21:48.433Z,50.48
2024-03-02T02:22:48.399Z,50.50
2024-03-02T02:23:48.402Z,50.50
2024-03-02T02:24:48.446Z,50.50
2024-03-02T02:25:48.437Z,50.48
2024-03-02T02:26:48.458Z,50.48
2024-03-02T02:27:49.250Z,50.49
2024-03-02T02:28:48.526Z,50.48
2024-03-02T02:29:48.509Z,50.46
2024-03-02T02:30:48.538Z,50.47
2024-03-02T02:31:48.553Z,50.47
2024-03-02T02:32:48.661Z,50.46
2024-03-02T02:33:48.595Z,50.46
2024-03-02T02:34:48.612Z,50.48
2024-03-02T02:35:48.598Z,50.46
2024-03-02T02:36:48.702Z,50.45
2024-03-02T02:37:48.679Z,50.46
2024-03-02T02:38:49.600Z,50.46
2024-03-02T02:39:48.687Z,50.44
2024-03-02T02:40:48.662Z,50.45
2024-03-02T02:41:48.676Z,50.45
2024-03-02T02:42:48.774Z,50.46
2024-03-02T02:43:48.711Z,50.44
2024-03-02T02:44:48.733Z,50.42
2024-03-02T02:45:48.804Z,50.43
2024-03-02T02:46:49.099Z,50.42
2024-03-02T02:47:48.804Z,50.45
2024-03-02T02:48:48.796Z,50.42
2024-03-02T02:49:48.792Z,50.41
2024-03-02T02:50:48.803Z,50.41
2024-03-02T02:51:48.825Z,50.41
2024-03-02T02:52:48.807Z,50.41
2024-03-02T02:53:48.824Z,50.41
2024-03-02T02:54:48.906Z,50.42
2024-03-02T02:55:48.854Z,50.41
2024-03-02T02:56:48.883Z,50.42
2024-03-02T02:57:48.946Z,50.42
2024-03-02T02:58:48.892Z,50.41
2024-03-02T02:59:48.910Z,50.41
2024-03-02T03:00:49.052Z,50.40
2024-03-02T03:01:48.975Z,50.38
2024-03-02T03:02:49.686Z,50.39
2024-03-02T03:03:48.981Z,50.41
2024-03-02T03:04:48.998Z,50.39
2024-03-02T03:05:48.971Z,50.40
2024-03-02T03:06:49.039Z,50.38
2024-03-02T03:07:49.017Z,50.39
2024-03-02T03:08:49.014Z,50.37
2024-03-02T03:09:49.180Z,50.35
2024-03-02T03:10:49.114Z,50.36
2024-03-02T03:11:49.060Z,50.36
2024-03-02T03:12:49.172Z,50.36
2024-03-02T03:13:49.098Z,50.36
2024-03-02T03:14:49.104Z,50.35
2024-03-02T03:15:49.141Z,50.36
2024-03-02T03:16:50.193Z,50.35
2024-03-02T03:17:49.285Z,50.34
2024-03-02T03:18:49.659Z,50.35
2024-03-02T03:19:49.194Z,50.34
2024-03-02T03:20:49.223Z,50.35
2024-03-02T03:21:49.339Z,50.34
2024-03-02T03:22:49.286Z,50.33
2024-03-02T03:23:49.256Z,50.34
2024-03-02T03:24:49.291Z,50.36
2024-03-02T03:25:49.277Z,50.34
2024-03-02T03:26:49.296Z,50.34
2024-03-02T03:27:49.315Z,50.35
2024-03-02T03:28:49.606Z,50.34
2024-03-02T03:29:49.394Z,50.30
2024-03-02T03:30:49.368Z,50.32
2024-03-02T03:31:49.364Z,50.34
2024-03-02T03:32:49.474Z,50.32
2024-03-02T03:33:49.437Z,50.32
2024-03-02T03:34:49.452Z,50.32
2024-03-02T03:35:49.414Z,50.32
2024-03-02T03:36:49.573Z,50.31
2024-03-02T03:37:49.442Z,50.29
2024-03-02T03:38:49.475Z,50.30
2024-03-02T03:39:49.518Z,50.27
2024-03-02T03:40:49.530Z,50.28
2024-03-02T03:41:49.559Z,50.30
2024-03-02T03:42:49.637Z,50.30
2024-03-02T03:43:49.619Z,50.29
2024-03-02T03:44:50.116Z,50.26
2024-03-02T03:45:49.699Z,50.28
2024-03-02T03:46:49.762Z,50.27
2024-03-02T03:47:49.778Z,50.28
2024-03-02T03:48:49.826Z,50.29
2024-03-02T03:49:49.806Z,50.25
2024-03-02T03:50:49.870Z,50.29
2024-03-02T03:51:49.896Z,50.27
2024-03-02T03:52:49.959Z,50.27
2024-03-02T03:53:49.927Z,50.27
2024-03-02T03:54:49.997Z,50.28
2024-03-02T03:55:49.982Z,50.27
2024-03-02T03:56:50.079Z,50.27
2024-03-02T03:57:50.082Z,50.26
2024-03-02T03:58:50.073Z,50.26
2024-03-02T03:59:50.113Z,50.27
2024-03-02T04:00:50.229Z,50.25
2024-03-02T04:01:50.182Z,50.24
2024-03-02T04:02:50.183Z,50.22
2024-03-02T04:03:50.282Z,50.24
2024-03-02T04:04:50.259Z,50.22
2024-03-02T04:05:50.346Z,50.24
2024-03-02T04:06:50.367Z,50.23
2024-03-02T04:07:50.337Z,50.24
2024-03-02T04:08:50.365Z,50.23
2024-03-02T04:09:50.641Z,50.21
2024-03-02T04:10:50.472Z,50.20
2024-03-02T04:11:50.475Z,50.19
2024-03-02T04:12:51.164Z,50.23
2024-03-02T04:13:51.119Z,50.21
2024-03-02T04:14:50.570Z,50.19
2024-03-02T04:15:50.683Z,50.20
2024-03-02T04:16:50.638Z,50.19
2024-03-02T04:17:50.754Z,50.21
2024-03-02T04:18:50.770Z,50.19
2024-03-02T04:19:50.759Z,50.21
2024-03-02T04:20:54.007Z,50.20
2024-03-02T04:21:51.708Z,50.20
2024-03-02T04:22:50.824Z,50.18
2024-03-02T04:23:50.852Z,50.19
2024-03-02T04:24:50.930Z,50.17
2024-03-02T04:25:50.869Z,50.18
2024-03-02T04:26:50.896Z,50.19
2024-03-02T04:27:50.934Z,50.19
2024-03-02T04:28:50.933Z,50.18
2024-03-02T04:29:53.630Z,50.18
2024-03-02T04:30:51.009Z,50.19
2024-03-02T04:31:50.998Z,50.20
2024-03-02T04:32:51.029Z,50.19
2024-03-02T04:33:51.034Z,50.18
2024-03-02T04:34:51.096Z,50.17
2024-03-02T04:35:51.077Z,50.18
2024-03-02T04:36:51.224Z,50.17
2024-03-02T04:37:51.634Z,50.16
2024-03-02T04:38:51.121Z,50.18
2024-03-02T04:39:51.171Z,50.17
2024-03-02T04:40:51.147Z,50.16
2024-03-02T04:41:51.166Z,50.15
2024-03-02T04:42:51.241Z,50.14
2024-03-02T04:43:51.263Z,50.15
2024-03-02T04:44:51.219Z,50.14
2024-03-02T04:45:51.268Z,50.16
2024-03-02T04:46:51.238Z,50.15
2024-03-02T04:47:51.260Z,50.13
2024-03-02T04:48:51.322Z,50.12
2024-03-02T04:49:51.365Z,50.12
2024-03-02T04:50:58.777Z,50.21
2024-03-02T04:51:58.741Z,50.17
2024-03-02T04:52:58.739Z,50.16
2024-03-02T04:53:58.752Z,50.16
2024-03-02T04:54:58.859Z,50.12
2024-03-02T04:55:58.850Z,50.12
2024-03-02T04:56:58.816Z,50.13
2024-03-02T04:57:59.015Z,50.13
2024-03-02T04:58:58.880Z,50.12
2024-03-02T04:59:58.895Z,50.09
2024-03-02T05:00:58.988Z,50.13
2024-03-02T05:01:59.040Z,50.10
2024-03-02T05:02:58.971Z,50.11
2024-03-02T05:03:59.048Z,50.08
2024-03-02T05:04:59.057Z,50.10
2024-03-02T05:05:59.018Z,50.14
2024-03-02T05:06:59.155Z,50.11
2024-03-02T05:07:59.085Z,50.10
2024-03-02T05:08:59.092Z,50.10
2024-03-02T05:09:59.121Z,50.08
2024-03-02T05:10:59.140Z,50.08
2024-03-02T05:11:59.154Z,50.08
2024-03-02T05:12:59.287Z,50.07
2024-03-02T05:13:59.226Z,50.08
2024-03-02T05:14:59.230Z,50.08
2024-03-02T05:15:59.353Z,50.05
2024-03-02T05:16:59.268Z,50.07
2024-03-02T05:17:59.452Z,50.04
2024-03-02T05:18:59.434Z,50.09
2024-03-02T05:19:59.343Z,50.05
2024-03-02T05:20:59.357Z,50.07
2024-03-02T05:21:59.409Z,50.06
2024-03-02T05:22:59.410Z,50.07
2024-03-02T05:23:59.423Z,50.07
2024-03-02T05:24:59.558Z,50.05
2024-03-02T05:25:59.474Z,50.03
2024-03-02T05:26:59.524Z,50.02
2024-03-02T05:27:59.606Z,50.03
2024-03-02T05:28:59.545Z,50.05
2024-03-02T05:29:59.576Z,50.03
2024-03-02T05:30:59.734Z,50.04
2024-03-02T05:31:59.614Z,50.05
2024-03-02T05:32:59.647Z,50.06
2024-03-02T05:33:59.728Z,50.05
2024-03-02T05:34:59.673Z,50.03
2024-03-02T05:35:59.700Z,50.06
2024-03-02T05:36:59.759Z,50.03
2024-03-02T05:37:59.748Z,50.02
2024-03-02T05:38:59.784Z,50.05
2024-03-02T05:39:59.801Z,50.02
2024-03-02T05:40:59.816Z,50.04
2024-03-02T05:41:59.836Z,50.01
2024-03-02T05:42:59.932Z,50.05
2024-03-02T05:43:59.882Z,50.01
2024-03-02T05:44:59.920Z,50.01
2024-03-02T05:46:00.016Z,50.02
2024-03-02T05:46:59.945Z,50.00
2024-03-02T05:48:00.022Z,49.99
2024-03-02T05:49:00.046Z,50.02
2024-03-02T05:50:00.005Z,49.99
2024-03-02T05:51:00.030Z,49.99
2024-03-02T05:52:00.102Z,49.99
2024-03-02T05:53:00.077Z,49.99
2024-03-02T05:54:00.098Z,49.98
2024-03-02T05:55:00.210Z,49.99
2024-03-02T05:56:02.020Z,49.98
2024-03-02T05:57:00.141Z,49.96
2024-03-02T05:58:00.342Z,50.00
2024-03-02T05:59:00.195Z,49.93
2024-03-02T06:00:00.294Z,49.96
2024-03-02T06:01:00.362Z,49.96
2024-03-02T06:02:00.275Z,49.95
2024-03-02T06:03:00.312Z,49.97
2024-03-02T06:04:00.406Z,49.97
2024-03-02T06:05:00.349Z,49.96
2024-03-02T06:06:00.376Z,49.93
2024-03-02T06:07:00.535Z,49.97
2024-03-02T06:08:00.483Z,49.97
2024-03-02T06:09:00.497Z,49.94
2024-03-02T06:10:00.640Z,49.95
2024-03-02T06:11:00.628Z,49.95
2024-03-02T06:12:00.624Z,49.96
2024-03-02T06:13:00.895Z,49.94
2024-03-02T06:14:00.648Z,49.94
2024-03-02T06:15:00.642Z,49.93
2024-03-02T06:16:00.645Z,49.94
2024-03-02T06:17:00.656Z,49.95
2024-03-02T06:18:00.668Z,49.93
2024-03-02T06:19:00.683Z,49.93
2024-03-02T06:20:00.775Z,49.92
2024-03-02T06:21:00.709Z,49.93
2024-03-02T06:22:00.780Z,49.91
2024-03-02T06:23:00.742Z,49.91
2024-03-02T06:24:00.774Z,49.92
2024-03-02T06:25:00.863Z,49.89
2024-03-02T06:26:00.813Z,49.91
2024-03-02T06:27:00.840Z,49.90
2024-03-02T06:28:01.106Z,49.90
2024-03-02T06:29:00.880Z,49.90
2024-03-02T06:30:00.919Z,49.91
2024-03-02T06:31:01.026Z,49.91
2024-03-02T06:32:00.961Z,49.90
2024-03-02T06:33:01.065Z,49.89
2024-03-02T06:34:01.084Z,49.90
2024-03-02T06:35:01.053Z,49.91
2024-03-02T06:36:01.065Z,49.89
2024-03-02T06:37:01.298Z,49.89
2024-03-02T06:38:01.088Z,49.87
2024-03-02T06:39:01.328Z,49.86
2024-03-02T06:40:01.255Z,49.88
2024-03-02T06:41:01.156Z,49.86
2024-03-02T06:42:01.192Z,49.86
2024-03-02T06:43:01.248Z,49.88
2024-03-02T06:44:01.662Z,49.88
2024-03-02T06:45:01.254Z,49.86
2024-03-02T06:46:01.358Z,49.84
2024-03-02T06:47:01.306Z,49.85
2024-03-02T06:48:01.363Z,49.85
2024-03-02T06:49:01.425Z,49.84
2024-03-02T06:50:01.387Z,49.85
2024-03-02T06:51:01.480Z,49.84
2024-03-02T06:52:01.497Z,49.84
2024-03-02T06:53:01.456Z,49.85
2024-03-02T06:54:01.476Z,49.83
2024-03-02T06:55:01.609Z,49.84
2024-03-02T06:56:01.541Z,49.83
2024-03-02T06:57:01.558Z,49.84
2024-03-02T06:58:01.753Z,49.84
2024-03-02T06:59:01.617Z,49.85
2024-03-02T07:00:01.658Z,49.81
2024-03-02T07:01:01.745Z,49.82
2024-03-02T07:02:01.722Z,49.82
2024-03-02T07:03:01.701Z,49.82
2024-03-02T07:04:01.844Z,49.82
2024-03-02T07:05:01.757Z,49.80
2024-03-02T07:06:01.846Z,49.80
2024-03-02T07:07:01.866Z,49.80
2024-03-02T07:08:01.828Z,49.82
2024-03-02T07:09:01.867Z,49.83
2024-03-02T07:10:02.121Z,49.80
2024-03-02T07:11:02.868Z,49.81
2024-03-02T07:12:01.926Z,49.77
2024-03-02T07:13:02.101Z,49.79
2024-03-02T07:14:01.992Z,49.75
2024-03-02T07:15:02.030Z,49.78
2024-03-02T07:16:02.428Z,49.77
2024-03-02T07:17:02.054Z,49.78
2024-03-02T07:18:02.076Z,49.76
2024-03-02T07:19:02.206Z,49.77
2024-03-02T07:20:02.114Z,49.73
2024-03-02T07:21:02.296Z,49.75
2024-03-02T07:22:02.251Z,49.74
2024-03-02T07:23:02.203Z,49.74
2024-03-02T07:24:02.250Z,49.73
2024-03-02T07:25:02.337Z,49.74
2024-03-02T07:27:04.581Z,49.74
2024-03-02T07:28:02.437Z,49.74
2024-03-02T07:29:02.430Z,49.75
2024-03-02T07:30:02.460Z,49.75
2024-03-02T07:31:02.765Z,49.75
2024-03-02T07:32:02.544Z,49.73
2024-03-02T07:33:02.590Z,49.73
2024-03-02T07:34:02.598Z,49.74
2024-03-02T07:35:02.601Z,49.72
2024-03-02T07:36:04.858Z,49.72
2024-03-02T07:37:02.705Z,49.72
2024-03-02T07:38:02.691Z,49.69
2024-03-02T07:39:02.728Z,49.70
2024-03-02T07:40:03.510Z,49.69
2024-03-02T07:41:02.780Z,49.73
2024-03-02T07:42:02.794Z,49.70
2024-03-02T07:43:02.855Z,49.71
2024-03-02T07:44:02.868Z,49.70
2024-03-02T07:45:03.871Z,49.69
2024-03-02T07:46:02.932Z,49.68
2024-03-02T07:47:02.948Z,49.69
2024-03-02T07:48:03.014Z,49.66
2024-03-02T07:49:03.021Z,49.68
2024-03-02T07:50:03.031Z,49.67
2024-03-02T07:51:03.044Z,49.67
2024-03-02T07:52:03.074Z,49.68
2024-03-02T07:53:03.088Z,49.67
2024-03-02T07:54:03.103Z,49.65
2024-03-02T07:55:03.129Z,49.66
2024-03-02T07:56:03.187Z,49.63
2024-03-02T07:57:03.186Z,49.66
2024-03-02T07:58:03.227Z,49.63
2024-03-02T07:59:03.232Z,49.65
2024-03-02T08:00:03.897Z,49.67
2024-03-02T08:01:03.385Z,49.65
2024-03-02T08:02:03.307Z,49.64
2024-03-02T08:03:03.342Z,49.64
2024-03-02T08:04:03.468Z,49.65
2024-03-02T08:05:03.393Z,49.61
2024-03-02T08:06:03.419Z,49.62
2024-03-02T08:07:03.501Z,49.60
2024-03-02T08:08:03.459Z,49.62
2024-03-02T08:09:03.488Z,49.60
2024-03-02T08:10:03.627Z,49.64
2024-03-02T08:11:03.562Z,49.60
2024-03-02T08:12:03.657Z,49.61
2024-03-02T08:13:03.643Z,49.60
2024-03-02T08:14:03.625Z,49.60
2024-03-02T08:15:03.648Z,49.59
2024-03-02T08:16:03.697Z,49.56
2024-03-02T08:17:03.697Z,49.56
2024-03-02T08:18:03.733Z,49.56
2024-03-02T08:19:03.799Z,49.56
2024-03-02T08:20:03.788Z,49.56
2024-03-02T08:21:03.824Z,49.55
2024-03-02T08:22:03.879Z,49.54
2024-03-02T08:23:03.838Z,49.54
2024-03-02T08:24:03.896Z,49.52
2024-03-02T08:25:03.952Z,49.53
2024-03-02T08:26:03.922Z,49.52
2024-03-02T08:27:03.934Z,49.51
2024-03-02T08:28:04.191Z,49.51
2024-03-02T08:29:04.015Z,49.53
2024-03-02T08:30:04.020Z,49.52
2024-03-02T08:31:04.098Z,49.52
2024-03-02T08:32:04.120Z,49.51
2024-03-02T08:33:04.125Z,49.51
2024-03-02T08:34:04.241Z,49.51
2024-03-02T08:35:04.134Z,49.48
2024-03-02T08:36:04.149Z,49.48
2024-03-02T08:37:04.207Z,49.47
2024-03-02T08:38:04.193Z,49.49
2024-03-02T08:39:04.271Z,49.48
2024-03-02T08:40:04.374Z,49.47
2024-03-02T08:41:04.281Z,49.48
2024-03-02T08:42:04.307Z,49.46
2024-03-02T08:43:04.391Z,49.50
2024-03-02T08:44:04.355Z,49.49
2024-03-02T08:45:04.371Z,49.48
2024-03-02T08:46:04.462Z,49.48
2024-03-02T08:47:04.424Z,49.48
2024-03-02T08:48:04.487Z,49.46
2024-03-02T08:49:04.541Z,49.47
2024-03-02T08:50:04.503Z,49.46
2024-03-02T08:51:04.530Z,49.46
2024-03-02T08:52:04.578Z,49.46
2024-03-02T08:53:05.375Z,49.47
2024-03-02T08:54:04.900Z,49.44
2024-03-02T08:55:04.663Z,49.45
2024-03-02T08:56:04.648Z,49.43
2024-03-02T08:57:04.766Z,49.44
2024-03-02T08:58:04.854Z,49.44
2024-03-02T08:59:04.743Z,49.44
2024-03-02T09:00:04.766Z,49.42
2024-03-02T09:01:04.982Z,49.43
2024-03-02T09:02:04.863Z,49.43
2024-03-02T09:03:04.888Z,49.40
2024-03-02T09:04:05.005Z,49.40
2024-03-02T09:05:05.007Z,49.41
2024-03-02T09:06:04.993Z,49.41
2024-03-02T09:07:05.042Z,49.42
2024-03-02T09:08:05.073Z,49.41
2024-03-02T09:09:05.061Z,49.39
2024-03-02T09:10:05.221Z,49.39
2024-03-02T09:11:05.122Z,49.40
2024-03-02T09:12:05.217Z,49.39
2024-03-02T09:13:05.974Z,49.39
2024-03-02T09:14:05.222Z,49.40
2024-03-02T09:15:05.256Z,49.40
2024-03-02T09:16:05.361Z,49.39
2024-03-02T09:17:05.311Z,49.37
2024-03-02T09:18:05.391Z,49.36
2024-03-02T09:19:05.516Z,49.35
2024-03-02T09:20:05.469Z,49.36
2024-03-02T09:21:05.501Z,49.36
2024-03-02T09:22:05.474Z,49.34
2024-03-02T09:23:05.617Z,49.35
2024-03-02T09:24:05.538Z,49.36
2024-03-02T09:25:05.735Z,49.34
2024-03-02T09:26:05.597Z,49.34
2024-03-02T09:27:06.311Z,49.30
2024-03-02T09:28:05.897Z,49.33
2024-03-02T09:29:05.682Z,49.33
2024-03-02T09:30:05.728Z,49.32
2024-03-02T09:31:06.001Z,49.31
2024-03-02T09:32:05.774Z,49.32
2024-03-02T09:34:05.945Z,49.32
2024-03-02T09:35:05.860Z,49.30
2024-03-02T09:36:05.889Z,49.31
2024-03-02T09:37:05.973Z,49.28
2024-03-02T09:38:05.954Z,49.30
2024-03-02T09:39:05.941Z,49.27
2024-03-02T09:40:06.931Z,49.28
2024-03-02T09:41:05.998Z,49.30
2024-03-02T09:42:06.025Z,49.33
2024-03-02T09:43:06.144Z,49.28
2024-03-02T09:44:06.056Z,49.28
2024-03-02T09:45:06.086Z,49.28
2024-03-02T09:46:06.134Z,49.28
2024-03-02T09:47:06.132Z,49.25
2024-03-02T09:48:06.172Z,49.28
2024-03-02T09:49:06.217Z,49.26
2024-03-02T09:50:06.197Z,49.24
2024-03-02T09:51:06.260Z,49.24
2024-03-02T09:52:06.339Z,49.23
2024-03-02T09:53:06.281Z,49.24
2024-03-02T09:54:13.429Z,49.21
2024-03-02T09:55:07.561Z,49.21
2024-03-02T09:56:06.532Z,49.20
2024-03-02T09:57:06.627Z,49.20
2024-03-02T09:58:06.700Z,49.19
2024-03-02T09:59:06.775Z,49.18
2024-03-02T10:00:06.817Z,49.17
2024-03-02T10:01:06.978Z,49.18
2024-03-02T10:02:06.953Z,49.17
2024-03-02T10:03:07.005Z,49.14
2024-03-02T10:04:07.129Z,49.16
2024-03-02T10:05:07.074Z,49.14
2024-03-02T10:06:07.143Z,49.13
2024-03-02T10:07:07.190Z,49.14
2024-03-02T10:08:07.317Z,49.11
2024-03-02T10:09:07.276Z,49.13
2024-03-02T10:10:07.375Z,49.09
2024-03-02T10:11:07.419Z,49.07
2024-03-02T10:12:07.456Z,49.06
2024-03-02T10:13:07.528Z,49.07
2024-03-02T10:14:07.609Z,49.03
2024-03-02T10:15:07.677Z,49.05
2024-03-02T10:16:07.812Z,49.05
2024-03-02T10:17:08.408Z,49.01
2024-03-02T10:18:07.965Z,49.01
2024-03-02T10:19:08.064Z,49.03
2024-03-02T10:20:08.165Z,49.02
2024-03-02T10:21:08.260Z,49.01
2024-03-02T10:22:08.407Z,49.00
2024-03-02T10:23:08.454Z,49.00
2024-03-02T10:24:08.570Z,49.00
2024-03-02T10:25:22.097Z,49.01
2024-03-02T10:26:09.734Z,48.99
2024-03-02T10:27:08.705Z,49.00
2024-03-02T10:28:08.765Z,48.99
2024-03-02T10:29:08.764Z,48.99
2024-03-02T10:30:08.801Z,48.98
2024-03-02T10:31:09.525Z,48.96
2024-03-02T10:32:08.843Z,48.96
2024-03-02T10:33:08.933Z,48.94
2024-03-02T10:34:08.972Z,48.94
2024-03-02T10:35:08.918Z,48.94
2024-03-02T10:36:08.973Z,48.94
2024-03-02T10:37:09.205Z,48.94
2024-03-02T10:38:09.011Z,48.94
2024-03-02T10:39:09.132Z,48.94
2024-03-02T10:40:09.106Z,48.94
2024-03-02T10:41:09.099Z,48.94
2024-03-02T10:42:09.111Z,48.94
2024-03-02T10:43:09.239Z,48.94
2024-03-02T10:44:09.183Z,48.94
2024-03-02T10:45:09.246Z,48.94
2024-03-02T10:46:09.365Z,48.94
2024-03-02T10:47:09.263Z,48.94
2024-03-02T10:48:09.328Z,48.94
2024-03-02T10:49:09.718Z,48.94
2024-03-02T10:50:09.377Z,48.94
2024-03-02T10:51:09.347Z,48.94
2024-03-02T10:52:09.432Z,48.94
2024-03-02T10:53:09.392Z,48.94
2024-03-02T10:54:09.419Z,48.94
2024-03-02T10:55:09.529Z,48.94
2024-03-02T10:56:09.559Z,48.94
2024-03-02T10:57:09.477Z,48.94
2024-03-02T10:58:09.537Z,48.94
2024-03-02T10:59:09.506Z,48.94
2024-03-02T11:00:09.517Z,48.94
2024-03-02T11:01:09.599Z,48.94
2024-03-02T11:02:09.701Z,48.94
2024-03-02T11:03:09.623Z,48.94
2024-03-02T11:04:09.573Z,48.94
2024-03-02T11:05:09.599Z,48.94
2024-03-02T11:06:09.663Z,48.94
2024-03-02T11:07:09.642Z,48.94
2024-03-02T11:08:09.630Z,48.94
2024-03-02T11:09:09.642Z,48.94
2024-03-02T11:10:09.985Z,48.94
2024-03-02T11:11:09.713Z,48.94
2024-03-02T11:12:09.684Z,48.94
2024-03-02T11:13:09.709Z,48.94
2024-03-02T11:14:09.856Z,48.94
2024-03-02T11:15:09.706Z,48.94
2024-03-02T11:16:09.838Z,48.94
2024-03-02T11:17:09.733Z,48.94
2024-03-02T11:18:09.880Z,48.94
2024-03-02T11:19:09.799Z,48.94
2024-03-02T11:20:09.749Z,48.94
2024-03-02T11:21:09.755Z,48.94
2024-03-02T11:22:09.849Z,48.94
2024-03-02T11:23:09.779Z,48.94
2024-03-02T11:24:09.785Z,48.94
2024-03-02T11:25:09.967Z,48.94
2024-03-02T11:26:09.831Z,48.94
2024-03-02T11:27:09.813Z,48.94
2024-03-02T11:28:09.876Z,48.94
2024-03-02T11:29:09.823Z,48.94
2024-03-02T11:30:11.684Z,48.94
2024-03-02T11:31:09.884Z,48.94
2024-03-02T11:32:09.848Z,48.94
2024-03-02T11:33:11.460Z,48.94
2024-03-02T11:34:09.856Z,48.94
2024-03-02T11:35:09.883Z,48.94
2024-03-02T11:36:12.398Z,48.94
2024-03-02T11:37:09.900Z,48.94
2024-03-02T11:38:09.864Z,48.94
2024-03-02T11:39:09.904Z,48.94
2024-03-02T11:40:09.895Z,48.94
2024-03-02T11:41:10.132Z,48.94
2024-03-02T11:42:09.860Z,48.94
2024-03-02T11:43:09.915Z,48.94
2024-03-02T11:44:09.866Z,48.94
2024-03-02T11:45:09.866Z,48.94
2024-03-02T11:46:10.113Z,48.94
2024-03-02T11:47:09.866Z,48.94
2024-03-02T11:48:09.991Z,48.94
2024-03-02T11:49:09.926Z,48.94
2024-03-02T11:50:09.861Z,48.94
2024-03-02T11:51:09.898Z,48.94
2024-03-02T11:52:09.914Z,48.94
2024-03-02T11:53:09.942Z,48.94
2024-03-02T11:54:09.850Z,48.94
2024-03-02T11:55:09.949Z,48.94
2024-03-02T11:56:09.835Z,48.94
2024-03-02T11:57:09.847Z,48.94
2024-03-02T11:58:09.922Z,48.94
2024-03-02T11:59:09.826Z,48.94
2024-03-02T12:00:09.836Z,48.94
2024-03-02T12:01:09.935Z,48.94
2024-03-02T12:02:09.812Z,48.94
2024-03-02T12:03:09.800Z,48.94
2024-03-02T12:04:09.820Z,48.94
2024-03-02T12:05:09.772Z,48.94
2024-03-02T12:06:09.772Z,48.94
2024-03-02T12:07:09.768Z,48.94
2024-03-02T12:08:09.749Z,48.94
2024-03-02T12:09:09.732Z,48.94
2024-03-02T12:10:09.781Z,48.94
2024-03-02T12:11:09.736Z,48.94
2024-03-02T12:12:09.697Z,48.94
2024-03-02T12:13:09.690Z,48.94
2024-03-02T12:14:09.661Z,48.94
2024-03-02T12:15:10.451Z,48.94
2024-03-02T12:16:09.665Z,48.94
2024-03-02T12:17:09.626Z,48.94
2024-03-02T12:18:09.657Z,48.94
2024-03-02T12:19:09.683Z,48.94
2024-03-02T12:20:09.582Z,48.94
2024-03-02T12:21:09.561Z,48.94
2024-03-02T12:22:09.571Z,48.94
2024-03-02T12:23:09.521Z,48.94
2024-03-02T12:24:09.518Z,48.94
2024-03-02T12:25:09.562Z,48.94
2024-03-02T12:26:09.498Z,48.94
2024-03-02T12:27:09.484Z,48.94
2024-03-02T12:28:09.486Z,48.94
2024-03-02T12:29:09.428Z,48.94
2024-03-02T12:30:09.416Z,48.94
2024-03-02T12:31:09.466Z,48.94
2024-03-02T12:32:09.376Z,48.94
2024-03-02T12:33:09.387Z,48.94
2024-03-02T12:34:09.410Z,48.94
2024-03-02T12:35:09.320Z,48.94
2024-03-02T12:36:09.321Z,48.94
2024-03-02T12:37:09.331Z,48.94
2024-03-02T12:38:09.346Z,48.94
2024-03-02T12:39:09.230Z,48.94
2024-03-02T12:40:09.240Z,48.94
2024-03-02T12:41:09.240Z,48.94
2024-03-02T12:42:09.253Z,48.94
2024-03-02T12:43:09.325Z,48.94
2024-03-02T12:44:09.281Z,48.94
2024-03-02T12:45:09.268Z,48.94
2024-03-02T12:46:09.291Z,48.94
2024-03-02T12:47:09.206Z,48.94
2024-03-02T12:48:09.297Z,48.94
2024-03-02T12:49:09.238Z,48.94
2024-03-02T12:50:09.144Z,48.94
2024-03-02T12:51:09.104Z,48.94
2024-03-02T12:52:09.116Z,48.94
2024-03-02T12:53:09.065Z,48.94
2024-03-02T12:54:09.036Z,48.94
2024-03-02T12:55:09.082Z,48.94